Time;durP1;ratioP1;P1;durP2;ratioP2;P2;SDS_P1;SDS_P2;PMS_P1;PMS_P2;Temp;Humidity;BMP_temperature;BMP_pressure;BME280_temperature;BME280_humidity;BME280_pressure;Samples;Min_cycle;Max_cycle;Signal;HPM_P1;HPM_P2
2022/08/13 00:00:40;;;;;;;6.20;2.00;;;19.80;54.60;;;;;;5030522;28;20038;-88
2022/08/13 00:03:12;;;;;;;3.25;2.08;;;19.70;53.80;;;;;;5015825;28;20038;-88
2022/08/13 00:05:38;;;;;;;3.40;1.98;;;19.70;54.10;;;;;;5028965;28;20042;-88
2022/08/13 00:08:05;;;;;;;2.47;1.92;;;19.60;53.90;;;;;;5032468;28;20030;-87
2022/08/13 00:10:32;;;;;;;6.57;2.42;;;19.60;55.00;;;;;;5008463;28;20033;-88
2022/08/13 00:12:57;;;;;;;5.70;2.30;;;19.50;54.90;;;;;;5008204;28;20083;-89
2022/08/13 00:15:28;;;;;;;5.90;2.10;;;19.50;54.40;;;;;;5004195;28;20025;-90
2022/08/13 00:18:00;;;;;;;5.63;2.15;;;19.40;53.30;;;;;;5029633;28;20063;-88
2022/08/13 00:20:28;;;;;;;5.20;2.33;;;19.30;53.70;;;;;;5021985;28;20477;-89
2022/08/13 00:22:58;;;;;;;4.88;2.00;;;19.20;55.20;;;;;;5014717;28;20040;-88
2022/08/13 00:25:24;;;;;;;7.97;2.17;;;19.20;55.30;;;;;;5022083;28;20047;-90
2022/08/13 00:27:56;;;;;;;3.95;2.20;;;19.10;56.30;;;;;;5014364;28;20044;-88
2022/08/13 00:30:33;;;;;;;4.88;2.50;;;19.10;56.60;;;;;;5019233;28;20097;-90
2022/08/13 00:33:10;;;;;;;5.10;3.03;;;19.10;56.40;;;;;;5046903;28;20047;-88
2022/08/13 00:35:36;;;;;;;;;;;19.00;57.70;;;;;;5020142;28;20033;-89
2022/08/13 00:38:08;;;;;;;4.68;3.17;;;18.90;56.80;;;;;;4980066;28;20380;-90
2022/08/13 00:40:34;;;;;;;4.95;3.03;;;18.90;58.50;;;;;;5018887;28;20037;-87
2022/08/13 00:43:06;;;;;;;4.85;2.55;;;18.90;56.20;;;;;;5011892;28;20039;-88
2022/08/13 00:45:32;;;;;;;4.88;2.63;;;18.90;59.90;;;;;;5013135;28;20057;-88
2022/08/13 00:50:43;;;;;;;5.68;3.25;;;18.90;60.20;;;;;;5028946;28;20044;-88
2022/08/13 00:53:17;;;;;;;3.25;2.83;;;18.80;61.70;;;;;;5016204;28;20545;-89
2022/08/13 00:55:51;;;;;;;4.45;1.90;;;18.80;61.10;;;;;;5022873;28;20090;-88
2022/08/13 00:58:20;;;;;;;7.07;2.25;;;18.80;59.40;;;;;;4996105;28;20412;-90
2022/08/13 01:00:53;;;;;;;2.88;2.42;;;18.80;59.40;;;;;;5006302;28;20400;-89
2022/08/13 01:03:19;;;;;;;2.85;2.55;;;18.70;59.20;;;;;;5001635;28;20096;-92
2022/08/13 01:05:47;;;;;;;7.47;2.13;;;18.80;59.10;;;;;;5016896;28;20473;-88
2022/08/13 01:08:16;;;;;;;1.95;1.80;;;18.70;58.20;;;;;;5022566;28;20038;-89
2022/08/13 01:10:49;;;;;;;3.88;2.05;;;18.60;57.50;;;;;;5016941;28;20481;-89
2022/08/13 01:13:20;;;;;;;8.57;2.22;;;18.60;58.50;;;;;;5030386;28;20035;-90
2022/08/13 01:15:46;;;;;;;4.00;1.90;;;18.60;59.10;;;;;;5029674;28;20079;-88
2022/08/13 01:18:13;;;;;;;2.53;1.60;;;18.50;57.20;;;;;;5021939;28;20041;-90
2022/08/13 01:21:03;;;;;;;2.38;1.92;;;18.50;59.40;;;;;;5016478;28;20409;-90
2022/08/13 01:23:29;;;;;;;4.07;2.30;;;18.50;59.60;;;;;;5021532;28;20029;-89
2022/08/13 01:25:55;;;;;;;6.28;2.15;;;18.40;58.20;;;;;;4996724;28;20582;-89
2022/08/13 01:28:23;;;;;;;5.38;2.10;;;18.40;59.90;;;;;;4996700;28;20562;-89
2022/08/13 01:30:50;;;;;;;6.10;2.45;;;18.40;58.80;;;;;;5018389;28;20046;-89
2022/08/13 01:33:17;;;;;;;6.57;2.75;;;18.40;59.40;;;;;;5016805;28;20029;-89
2022/08/13 01:35:43;;;;;;;3.33;2.30;;;18.50;56.90;;;;;;5003379;28;20029;-89
2022/08/13 01:38:12;;;;;;;7.93;2.30;;;18.40;58.70;;;;;;5014592;28;20037;-90
2022/08/13 01:40:39;;;;;;;5.43;1.83;;;18.40;59.10;;;;;;5019370;28;20117;-89
2022/08/13 01:43:05;;;;;;;5.60;1.67;;;18.30;58.40;;;;;;5025605;28;21144;-88
2022/08/13 01:45:35;;;;;;;5.47;2.40;;;18.30;58.60;;;;;;5015699;28;20029;-89
2022/08/13 01:50:47;;;;;;;4.13;1.92;;;18.30;59.10;;;;;;5016263;28;20125;-90
2022/08/13 01:53:14;;;;;;;5.90;1.92;;;18.30;59.40;;;;;;4994983;28;20048;-88
2022/08/13 01:55:44;;;;;;;2.63;2.08;;;18.30;59.80;;;;;;5006179;28;20106;-89
2022/08/13 01:58:19;;;;;;;4.22;2.08;;;18.20;59.80;;;;;;5030331;28;20025;-89
2022/08/13 02:00:47;;;;;;;8.07;2.50;;;18.20;60.10;;;;;;5002323;28;20037;-90
2022/08/13 02:03:13;;;;;;;4.55;1.95;;;18.10;60.30;;;;;;5014903;28;20030;-88
2022/08/13 02:05:39;;;;;;;7.07;2.47;;;18.10;59.80;;;;;;5013550;28;20036;-90
2022/08/13 02:08:06;;;;;;;3.80;2.10;;;18.20;58.40;;;;;;5013801;28;20362;-88
2022/08/13 02:10:31;;;;;;;3.50;2.47;;;18.10;59.40;;;;;;5025538;28;20052;-89
2022/08/13 02:12:57;;;;;;;5.88;2.35;;;18.00;58.60;;;;;;5028245;28;20029;-90
2022/08/13 02:15:30;;;;;;;7.75;2.70;;;17.90;61.40;;;;;;5027833;28;20038;-88
2022/08/13 02:17:56;;;;;;;5.72;2.60;;;17.80;60.10;;;;;;5000830;28;20060;-89
2022/08/13 02:20:21;;;;;;;3.35;2.38;;;17.90;58.20;;;;;;5019375;28;20061;-88
2022/08/13 02:22:50;;;;;;;6.05;2.30;;;17.70;62.00;;;;;;4997839;28;20041;-89
2022/08/13 02:25:16;;;;;;;4.15;2.35;;;17.60;62.90;;;;;;5001622;28;20041;-89
2022/08/13 02:27:42;;;;;;;3.85;2.67;;;17.70;60.10;;;;;;4987132;28;20239;-88
2022/08/13 02:30:11;;;;;;;5.18;2.67;;;17.60;62.80;;;;;;5019589;28;20144;-89
2022/08/13 02:32:38;;;;;;;4.97;2.63;;;17.60;60.30;;;;;;5029717;28;20048;-88
2022/08/13 02:35:04;;;;;;;7.28;2.33;;;17.50;61.10;;;;;;5027887;28;20037;-87
2022/08/13 02:37:32;;;;;;;6.68;2.50;;;17.40;61.00;;;;;;5022966;28;20048;-89
2022/08/13 02:39:58;;;;;;;5.53;2.10;;;17.40;60.60;;;;;;5022411;28;20029;-88
2022/08/13 02:42:30;;;;;;;9.70;2.50;;;17.30;59.00;;;;;;5029333;28;20076;-87
2022/08/13 02:44:58;;;;;;;7.13;2.33;;;17.20;62.30;;;;;;5001537;28;20053;-89
2022/08/13 02:47:25;;;;;;;3.42;2.10;;;17.10;61.00;;;;;;4982884;28;20036;-88
2022/08/13 02:49:51;;;;;;;6.88;2.05;;;17.00;61.10;;;;;;4994112;28;20044;-88
2022/08/13 02:52:25;;;;;;;9.07;2.50;;;17.10;64.70;;;;;;4991375;28;20033;-88
2022/08/13 02:54:52;;;;;;;6.82;2.30;;;17.20;65.00;;;;;;4993880;28;20512;-89
2022/08/13 02:57:21;;;;;;;2.92;2.28;;;17.10;63.20;;;;;;5026733;28;20033;-89
2022/08/13 02:59:47;;;;;;;15.20;2.70;;;17.00;60.90;;;;;;5017024;28;20033;-88
2022/08/13 03:02:13;;;;;;;4.63;2.97;;;17.10;67.40;;;;;;5028786;28;20337;-86
2022/08/13 03:04:46;;;;;;;4.43;3.15;;;17.10;67.70;;;;;;5012681;28;20509;-88
2022/08/13 03:07:11;;;;;;;4.05;2.88;;;17.00;68.30;;;;;;5013538;28;20485;-87
2022/08/13 03:09:37;;;;;;;5.88;2.72;;;17.10;64.80;;;;;;5014002;28;20028;-88
2022/08/13 03:12:04;;;;;;;8.82;2.45;;;17.10;61.40;;;;;;4997346;28;20033;-89
2022/08/13 03:14:31;;;;;;;2.38;2.17;;;17.10;64.90;;;;;;4986718;28;20033;-88
2022/08/13 03:16:57;;;;;;;6.15;3.78;;;17.00;64.90;;;;;;5005466;28;20049;-89
2022/08/13 03:19:24;;;;;;;4.53;2.58;;;16.90;63.60;;;;;;5009087;28;20493;-88
2022/08/13 03:21:54;;;;;;;3.25;2.70;;;16.80;66.60;;;;;;5004435;28;20029;-88
2022/08/13 03:24:20;;;;;;;5.55;3.10;;;16.70;67.30;;;;;;5008970;28;20033;-88
2022/08/13 03:26:46;;;;;;;4.78;2.22;;;16.70;68.60;;;;;;5029128;28;20681;-87
2022/08/13 03:29:14;;;;;;;3.38;2.45;;;16.90;60.70;;;;;;5017492;28;20102;-87
2022/08/13 03:31:40;;;;;;;5.18;2.92;;;17.20;58.70;;;;;;5020299;28;20053;-87
2022/08/13 03:34:06;;;;;;;4.43;2.80;;;17.00;61.40;;;;;;5014451;28;20068;-90
2022/08/13 03:36:32;;;;;;;5.95;3.53;;;16.70;63.70;;;;;;5017739;28;20378;-88
2022/08/13 03:39:00;;;;;;;7.22;3.72;;;16.60;65.80;;;;;;5029143;28;20050;-89
2022/08/13 03:41:26;;;;;;;9.13;4.05;;;16.50;64.70;;;;;;5028834;28;20079;-89
2022/08/13 03:43:52;;;;;;;5.35;3.60;;;16.40;62.20;;;;;;5017819;28;20606;-89
2022/08/13 03:46:20;;;;;;;6.63;4.03;;;16.40;66.00;;;;;;5014516;28;20121;-87
2022/08/13 03:48:49;;;;;;;6.95;3.85;;;16.40;65.50;;;;;;5013425;28;20581;-88
2022/08/13 03:51:16;;;;;;;6.72;3.78;;;16.40;66.20;;;;;;5033529;28;20053;-89
2022/08/13 03:53:53;;;;;;;4.50;3.53;;;16.50;66.70;;;;;;5004703;28;20033;-87
2022/08/13 03:56:19;;;;;;;5.32;3.70;;;16.40;68.00;;;;;;4998410;28;20029;-88
2022/08/13 03:58:47;;;;;;;6.53;3.60;;;16.40;66.70;;;;;;5020690;28;20033;-88
2022/08/13 04:01:17;;;;;;;6.00;3.30;;;16.40;65.40;;;;;;5015474;28;20105;-88
2022/08/13 04:03:43;;;;;;;4.57;3.05;;;16.30;62.30;;;;;;5009619;28;20053;-88
2022/08/13 04:06:20;;;;;;;4.95;3.20;;;16.30;65.50;;;;;;4999388;28;20081;-88
2022/08/13 04:08:51;;;;;;;7.63;3.97;;;16.20;64.80;;;;;;4988405;28;20041;-88
2022/08/13 04:11:18;;;;;;;3.47;3.05;;;16.20;67.30;;;;;;5012519;28;20032;-88
2022/08/13 04:13:45;;;;;;;6.30;3.22;;;16.20;66.90;;;;;;4989906;28;20100;-88
2022/08/13 04:16:20;;;;;;;4.72;2.95;;;16.10;65.50;;;;;;5018064;28;20033;-88
2022/08/13 04:18:46;;;;;;;4.15;2.95;;;16.10;66.90;;;;;;5018247;28;20125;-88
2022/08/13 04:21:28;;;;;;;5.00;3.90;;;16.10;66.00;;;;;;5014010;28;20039;-88
2022/08/13 04:23:54;;;;;;;6.80;3.40;;;16.10;66.60;;;;;;5030279;28;20029;-87
2022/08/13 04:26:21;;;;;;;8.32;3.40;;;16.00;64.90;;;;;;5012957;28;20059;-87
2022/08/13 04:28:47;;;;;;;7.70;2.95;;;16.00;63.10;;;;;;5012142;28;20056;-89
2022/08/13 04:31:14;;;;;;;8.90;3.60;;;16.00;65.50;;;;;;5015499;28;20490;-88
2022/08/13 04:33:42;;;;;;;6.05;3.75;;;16.00;67.70;;;;;;5000067;28;20122;-88
2022/08/13 04:36:07;;;;;;;6.30;3.42;;;16.00;65.10;;;;;;5002001;28;20124;-88
2022/08/13 04:38:33;;;;;;;6.45;3.45;;;16.00;67.00;;;;;;5013338;28;20049;-88
2022/08/13 04:40:59;;;;;;;7.90;4.38;;;16.00;67.00;;;;;;5017844;28;20449;-89
2022/08/13 04:43:24;;;;;;;5.63;3.40;;;16.00;68.70;;;;;;5018224;28;20030;-87
2022/08/13 04:45:50;;;;;;;8.15;3.88;;;16.00;65.50;;;;;;5030503;28;20038;-89
2022/08/13 04:48:16;;;;;;;6.55;3.35;;;16.00;69.00;;;;;;5032935;28;20068;-88
2022/08/13 04:50:44;;;;;;;5.85;2.97;;;16.20;69.30;;;;;;5014210;28;20109;-88
2022/08/13 04:53:23;;;;;;;7.15;3.33;;;16.30;66.10;;;;;;5015963;28;20041;-89
2022/08/13 04:55:51;;;;;;;6.07;3.45;;;16.50;64.20;;;;;;5014068;28;20092;-89
2022/08/13 04:58:17;;;;;;;4.45;3.22;;;16.50;65.80;;;;;;5009719;28;20033;-89
2022/08/13 05:00:44;;;;;;;5.72;3.28;;;16.60;63.20;;;;;;5008916;28;20032;-88
2022/08/13 05:03:21;;;;;;;6.18;3.78;;;16.50;63.70;;;;;;4979693;28;20875;-87
2022/08/13 05:05:48;;;;;;;5.43;3.63;;;16.60;63.30;;;;;;5008467;28;20022;-88
2022/08/13 05:08:15;;;;;;;10.75;4.05;;;16.80;62.90;;;;;;5031736;28;20034;-88
2022/08/13 05:10:41;;;;;;;4.10;2.92;;;16.90;63.40;;;;;;5017662;28;20037;-86
2022/08/13 05:13:21;;;;;;;5.85;3.03;;;17.00;64.20;;;;;;5013596;28;20037;-88
2022/08/13 05:15:47;;;;;;;7.18;3.15;;;17.00;65.30;;;;;;5030181;28;20034;-89
2022/08/13 05:18:13;;;;;;;8.13;3.10;;;17.10;64.90;;;;;;5013289;28;20034;-87
2022/08/13 05:20:41;;;;;;;5.40;2.78;;;17.30;63.60;;;;;;5016029;28;20041;-89
2022/08/13 05:23:10;;;;;;;5.65;3.30;;;17.40;64.50;;;;;;5014622;28;20928;-89
2022/08/13 05:25:36;;;;;;;6.65;2.42;;;17.60;63.70;;;;;;5005883;28;20324;-88
2022/08/13 05:28:02;;;;;;;4.50;2.70;;;17.70;64.10;;;;;;5004450;28;20124;-89
2022/08/13 05:30:27;;;;;;;7.05;2.80;;;17.90;63.00;;;;;;5000570;28;20057;-88
2022/08/13 05:32:56;;;;;;;5.80;2.75;;;18.00;63.30;;;;;;5004734;28;20106;-87
2022/08/13 05:35:21;;;;;;;6.03;2.70;;;18.10;63.70;;;;;;5009940;28;20034;-88
2022/08/13 05:37:47;;;;;;;9.80;3.17;;;18.30;63.10;;;;;;5040622;28;20199;-86
2022/08/13 05:40:13;;;;;;;8.13;2.97;;;18.40;63.00;;;;;;5025766;28;20057;-87
2022/08/13 05:42:39;;;;;;;8.88;3.15;;;18.50;62.60;;;;;;5016379;28;20030;-87
2022/08/13 05:45:08;;;;;;;6.68;3.17;;;18.70;63.30;;;;;;5019521;28;20029;-87
2022/08/13 05:47:35;;;;;;;4.78;3.28;;;18.80;62.90;;;;;;4992744;28;20030;-87
2022/08/13 05:50:02;;;;;;;6.63;2.45;;;19.00;62.30;;;;;;5028836;28;20418;-88
2022/08/13 05:52:34;;;;;;;5.00;2.67;;;19.10;62.50;;;;;;5004512;28;20026;-89
2022/08/13 05:54:59;;;;;;;6.68;3.00;;;19.30;62.30;;;;;;4992023;28;20032;-88
2022/08/13 05:57:25;;;;;;;22.55;4.55;;;19.40;62.80;;;;;;5020669;28;20112;-88
2022/08/13 06:05:22;;;;;;;4.72;2.90;;;19.80;62.10;;;;;;5021594;28;20071;-89
2022/08/13 06:07:48;;;;;;;2.53;2.10;;;20.00;61.60;;;;;;5010300;28;20026;-89
2022/08/13 06:10:25;;;;;;;7.85;2.80;;;20.10;60.80;;;;;;4990138;28;20037;-88
2022/08/13 06:12:51;;;;;;;3.42;2.55;;;20.30;62.00;;;;;;4995886;28;20034;-87
2022/08/13 06:15:22;;;;;;;9.63;3.35;;;20.40;61.60;;;;;;5031992;28;20161;-89
2022/08/13 06:17:50;;;;;;;4.82;2.78;;;20.60;61.70;;;;;;5011251;28;20120;-89
2022/08/13 06:20:16;;;;;;;7.00;2.75;;;20.70;60.20;;;;;;5021652;28;20479;-88
2022/08/13 06:22:48;;;;;;;5.80;3.20;;;20.80;61.80;;;;;;5024794;28;20056;-88
2022/08/13 06:25:15;;;;;;;5.43;2.67;;;21.00;61.80;;;;;;5025651;28;20183;-88
2022/08/13 06:27:42;;;;;;;4.53;2.92;;;21.10;61.40;;;;;;5018758;28;20030;-91
2022/08/13 06:30:09;;;;;;;2.92;2.22;;;21.30;60.50;;;;;;4997484;28;20029;-90
2022/08/13 06:32:35;;;;;;;3.17;2.42;;;21.40;59.60;;;;;;5005483;28;20021;-86
2022/08/13 06:35:01;;;;;;;3.92;2.45;;;21.50;61.10;;;;;;5009538;28;20455;-88
2022/08/13 06:37:28;;;;;;;4.72;2.40;;;21.70;60.90;;;;;;5013853;28;20025;-89
2022/08/13 06:39:53;;;;;;;6.20;2.78;;;21.80;60.20;;;;;;5003549;28;20116;-89
2022/08/13 06:42:19;;;;;;;3.67;2.67;;;22.00;59.90;;;;;;5012181;28;20113;-90
2022/08/13 06:44:45;;;;;;;7.43;2.83;;;22.10;59.60;;;;;;5014125;28;20172;-90
2022/08/13 06:47:13;;;;;;;3.40;2.20;;;22.20;59.70;;;;;;5029319;28;20093;-86
2022/08/13 06:49:39;;;;;;;5.88;2.63;;;22.40;59.70;;;;;;5014567;28;20037;-89
2022/08/13 06:52:05;;;;;;;5.03;2.33;;;22.50;60.50;;;;;;5011045;28;20037;-90
2022/08/13 06:54:31;;;;;;;3.90;2.30;;;22.60;59.50;;;;;;5012194;28;20037;-89
2022/08/13 06:57:00;;;;;;;3.15;2.05;;;22.70;59.40;;;;;;5019093;28;20091;-91
2022/08/13 06:59:26;;;;;;;2.50;2.30;;;22.90;58.70;;;;;;5011852;28;20034;-89
2022/08/13 07:01:57;;;;;;;5.22;2.10;;;23.10;59.10;;;;;;4996254;28;21645;-92
2022/08/13 07:04:23;;;;;;;4.63;2.28;;;23.30;58.20;;;;;;4981075;28;20112;-90
2022/08/13 07:06:49;;;;;;;3.80;2.13;;;23.40;58.80;;;;;;5023115;28;20045;-90
2022/08/13 07:09:14;;;;;;;4.45;2.40;;;23.60;58.30;;;;;;5013906;28;20389;-90
2022/08/13 07:11:44;;;;;;;3.42;1.95;;;23.80;58.00;;;;;;5024673;28;20044;-87
2022/08/13 07:14:11;;;;;;;2.22;1.83;;;23.80;56.80;;;;;;5018915;28;20057;-87
2022/08/13 07:16:39;;;;;;;3.28;2.25;;;23.90;57.80;;;;;;5027912;28;20033;-89
2022/08/13 07:19:06;;;;;;;5.60;2.17;;;24.10;57.70;;;;;;5023839;28;20456;-87
2022/08/13 07:21:32;;;;;;;6.07;2.25;;;24.20;57.00;;;;;;5013401;28;20120;-88
2022/08/13 07:24:00;;;;;;;4.88;1.95;;;24.40;56.30;;;;;;5000792;28;20116;-88
2022/08/13 07:26:31;;;;;;;2.10;1.90;;;24.50;56.80;;;;;;5016253;28;20033;-89
2022/08/13 07:28:57;;;;;;;4.63;2.13;;;24.70;56.80;;;;;;5018747;28;20026;-88
2022/08/13 07:31:34;;;;;;;1.90;1.73;;;24.90;57.00;;;;;;5015556;28;21951;-89
2022/08/13 07:34:05;;;;;;;2.95;2.13;;;25.10;56.90;;;;;;5011980;28;20532;-88
2022/08/13 07:36:35;;;;;;;4.47;1.90;;;25.20;55.30;;;;;;5009191;28;20030;-88
2022/08/13 07:39:05;;;;;;;5.13;1.92;;;25.30;56.00;;;;;;5014076;28;20068;-89
2022/08/13 07:41:30;;;;;;;4.28;2.22;;;25.50;55.90;;;;;;5010054;28;20030;-90
2022/08/13 07:43:59;;;;;;;3.28;1.70;;;25.50;55.30;;;;;;5012046;28;20536;-88
2022/08/13 07:46:25;;;;;;;9.13;1.85;;;25.60;55.80;;;;;;5011187;28;20041;-90
2022/08/13 07:48:52;;;;;;;2.80;1.85;;;25.80;54.90;;;;;;4988513;28;20033;-89
2022/08/13 07:51:21;;;;;;;3.47;1.95;;;25.90;54.50;;;;;;4986036;28;20037;-89
2022/08/13 07:53:47;;;;;;;2.40;1.80;;;26.10;55.30;;;;;;4993554;28;20044;-88
2022/08/13 07:56:20;;;;;;;6.60;1.60;;;26.20;54.60;;;;;;4980240;28;21027;-88
2022/08/13 07:58:45;;;;;;;1.80;1.50;;;26.30;54.50;;;;;;5018275;28;20034;-87
2022/08/13 08:01:11;;;;;;;1.95;1.77;;;26.60;53.40;;;;;;5016914;28;20041;-88
2022/08/13 08:03:47;;;;;;;3.15;1.80;;;26.60;53.50;;;;;;5017751;28;20072;-88
2022/08/13 08:06:17;;;;;;;2.55;1.80;;;26.70;53.70;;;;;;5007962;28;20168;-89
2022/08/13 08:08:47;;;;;;;1.50;1.40;;;26.90;53.30;;;;;;4993049;28;20093;-89
2022/08/13 08:12:30;;;;;;;3.08;1.75;;;27.00;52.60;;;;;;5031815;28;20481;-88
2022/08/13 08:14:00;;;;;;;1.92;1.50;;;27.10;53.00;;;;;;5029766;28;20033;-88
2022/08/13 08:16:42;;;;;;;2.10;1.77;;;27.40;53.20;;;;;;5027970;28;20606;-90
2022/08/13 08:19:07;;;;;;;2.35;1.75;;;27.60;53.00;;;;;;4990943;28;20558;-90
2022/08/13 08:21:35;;;;;;;3.42;1.77;;;27.60;52.50;;;;;;5021946;28;20037;-90
2022/08/13 08:24:02;;;;;;;2.08;1.60;;;27.70;52.20;;;;;;5021498;28;20034;-89
2022/08/13 08:26:32;;;;;;;4.28;1.90;;;27.90;52.20;;;;;;5014319;28;20087;-90
2022/08/13 08:29:04;;;;;;;3.40;1.50;;;28.10;52.20;;;;;;5019923;28;20033;-89
2022/08/13 08:31:30;;;;;;;3.95;2.00;;;28.30;52.20;;;;;;5015262;28;20132;-89
2022/08/13 08:33:57;;;;;;;1.98;1.63;;;28.40;51.20;;;;;;5028437;28;20038;-88
2022/08/13 08:36:24;;;;;;;6.30;1.80;;;28.50;51.50;;;;;;5017135;28;20049;-88
2022/08/13 08:44:30;;;;;;;9.13;1.40;;;28.90;50.00;;;;;;5007082;28;20503;-88
2022/08/13 08:46:56;;;;;;;1.85;1.27;;;29.00;49.50;;;;;;5017762;28;20029;-88
2022/08/13 08:49:24;;;;;;;4.57;1.30;;;29.10;49.60;;;;;;5004855;28;20130;-88
2022/08/13 08:51:50;;;;;;;1.90;1.48;;;29.20;49.30;;;;;;5021018;28;20453;-90
2022/08/13 08:54:18;;;;;;;1.70;1.15;;;29.50;48.80;;;;;;5016349;28;20037;-88
2022/08/13 08:56:48;;;;;;;1.90;1.00;;;29.50;49.30;;;;;;5030019;28;20034;-88
2022/08/13 08:59:15;;;;;;;2.08;1.02;;;29.70;47.90;;;;;;5012868;28;20083;-89
2022/08/13 09:01:44;;;;;;;2.97;1.20;;;29.70;47.90;;;;;;5013856;28;20034;-89
2022/08/13 09:04:10;;;;;;;2.63;1.27;;;29.80;48.50;;;;;;5020164;28;20030;-88
2022/08/13 09:06:36;;;;;;;2.40;1.30;;;29.90;48.70;;;;;;5021224;28;20037;-89
2022/08/13 09:09:02;;;;;;;2.05;1.15;;;30.10;46.90;;;;;;5019671;28;20536;-87
2022/08/13 09:11:34;;;;;;;2.10;1.30;;;30.50;47.80;;;;;;5014310;28;20034;-88
2022/08/13 09:14:07;;;;;;;1.25;1.15;;;30.50;47.10;;;;;;4997002;28;20034;-89
2022/08/13 09:16:39;;;;;;;2.75;1.40;;;31.00;45.00;;;;;;4994428;28;20040;-90
2022/08/13 09:19:06;;;;;;;3.60;1.23;;;31.20;44.30;;;;;;5031488;28;20030;-88
2022/08/13 09:21:38;;;;;;;1.50;1.17;;;31.40;45.30;;;;;;5015874;28;20029;-88
2022/08/13 09:24:04;;;;;;;1.77;1.08;;;31.60;43.30;;;;;;5014640;28;20029;-89
2022/08/13 09:26:29;;;;;;;1.08;1.00;;;32.10;43.40;;;;;;5020498;28;20131;-88
2022/08/13 09:29:02;;;;;;;2.22;1.30;;;32.20;42.50;;;;;;5013711;28;20324;-89
2022/08/13 09:31:29;;;;;;;1.60;1.50;;;32.20;43.00;;;;;;5011332;28;20037;-89
2022/08/13 09:33:55;;;;;;;3.47;1.30;;;31.90;44.30;;;;;;5006295;28;20552;-88
2022/08/13 09:36:25;;;;;;;1.25;1.15;;;31.90;43.10;;;;;;4999608;28;22258;-91
2022/08/13 09:38:50;;;;;;;2.58;1.50;;;31.90;44.30;;;;;;5014310;28;20049;-89
2022/08/13 09:41:24;;;;;;;2.38;1.27;;;32.00;43.20;;;;;;4990327;28;20037;-88
2022/08/13 09:43:50;;;;;;;3.13;1.33;;;32.10;43.80;;;;;;5029434;28;20161;-90
2022/08/13 09:46:16;;;;;;;2.42;1.40;;;32.50;43.60;;;;;;5016898;28;20102;-89
2022/08/13 09:48:51;;;;;;;2.55;2.35;;;32.40;43.20;;;;;;5019481;28;20044;-91
2022/08/13 09:51:17;;;;;;;2.63;1.20;;;32.70;42.00;;;;;;5037503;28;20037;-89
2022/08/13 09:53:46;;;;;;;1.20;1.10;;;33.10;41.50;;;;;;5019185;28;20046;-87
2022/08/13 09:56:17;;;;;;;1.48;1.30;;;33.00;42.80;;;;;;5014304;28;20028;-89
2022/08/13 09:58:52;;;;;;;4.60;1.70;;;32.80;42.40;;;;;;4989633;28;20037;-88
2022/08/13 10:01:18;;;;;;;1.55;1.35;;;33.00;42.00;;;;;;4974569;28;20040;-87
2022/08/13 10:03:45;;;;;;;2.05;1.60;;;32.80;42.60;;;;;;5019192;28;20117;-87
2022/08/13 10:06:19;;;;;;;1.70;1.60;;;32.90;42.00;;;;;;4990410;28;20034;-88
2022/08/13 10:08:46;;;;;;;1.58;1.48;;;33.00;42.20;;;;;;5004453;28;20088;-89
2022/08/13 10:11:22;;;;;;;3.28;1.42;;;34.20;40.30;;;;;;5014399;28;20036;-88
2022/08/13 10:13:48;;;;;;;4.30;1.33;;;34.00;41.00;;;;;;5016364;28;20037;-89
2022/08/13 10:16:14;;;;;;;1.48;1.38;;;33.80;40.00;;;;;;5030932;28;20033;-87
2022/08/13 10:18:41;;;;;;;2.28;1.60;;;33.70;41.10;;;;;;5018662;28;20136;-87
2022/08/13 10:21:07;;;;;;;1.35;1.25;;;34.30;40.40;;;;;;5012232;28;20029;-89
2022/08/13 10:23:33;;;;;;;1.30;1.20;;;34.50;39.80;;;;;;4995654;28;20481;-86
2022/08/13 10:26:08;;;;;;;1.48;1.38;;;35.60;37.20;;;;;;4996946;28;20026;-90
2022/08/13 10:28:36;;;;;;;2.17;1.48;;;35.60;37.20;;;;;;4985863;28;20044;-92
2022/08/13 10:31:07;;;;;;;2.65;1.10;;;35.30;37.90;;;;;;5001039;28;20120;-88
2022/08/13 10:33:34;;;;;;;3.60;1.35;;;36.30;36.40;;;;;;4991769;28;20044;-90
2022/08/13 10:35:59;;;;;;;2.38;1.48;;;35.40;38.90;;;;;;4997205;28;20120;-90
2022/08/13 10:38:30;;;;;;;3.00;1.50;;;35.10;37.80;;;;;;5013742;28;20053;-88
2022/08/13 10:41:00;;;;;;;2.58;1.27;;;34.90;38.90;;;;;;4998091;28;20045;-90
2022/08/13 10:43:28;;;;;;;1.23;1.02;;;34.90;37.90;;;;;;5009728;28;20056;-88
2022/08/13 10:45:56;;;;;;;3.72;1.00;;;34.80;37.90;;;;;;5012737;28;20099;-88
2022/08/13 10:48:25;;;;;;;1.40;1.17;;;35.10;38.00;;;;;;5003093;28;20103;-89
2022/08/13 10:50:54;;;;;;;1.60;1.17;;;35.10;37.40;;;;;;5013983;28;20032;-88
2022/08/13 10:56:18;;;;;;;1.75;1.30;;;35.40;37.10;;;;;;4968241;28;20471;-87
2022/08/13 10:58:44;;;;;;;1.27;1.17;;;35.30;37.30;;;;;;4988197;28;20064;-88
2022/08/13 11:01:10;;;;;;;2.85;1.33;;;35.40;38.00;;;;;;5011989;28;20034;-89
2022/08/13 11:03:38;;;;;;;1.40;1.30;;;36.30;36.30;;;;;;5024637;28;20412;-88
2022/08/13 11:06:06;;;;;;;1.95;1.30;;;37.00;35.30;;;;;;5035532;28;20121;-88
2022/08/13 11:08:34;;;;;;;1.20;1.10;;;36.80;36.40;;;;;;5018671;28;20493;-87
2022/08/13 11:11:06;;;;;;;3.33;1.40;;;36.20;37.10;;;;;;5004103;28;20029;-88
2022/08/13 11:13:32;;;;;;;3.30;1.35;;;37.10;35.80;;;;;;5002075;28;20042;-87
2022/08/13 11:16:56;;;;;;;1.02;1.00;;;36.90;36.20;;;;;;5010200;28;20051;-87
2022/08/13 11:18:54;;;;;;;3.63;1.40;;;36.70;36.60;;;;;;5014459;28;20493;-89
2022/08/13 11:21:30;;;;;;;2.35;1.20;;;36.50;37.00;;;;;;4992845;28;20492;-91
2022/08/13 11:23:56;;;;;;;1.00;1.00;;;37.80;33.10;;;;;;4970632;28;20030;-89
2022/08/13 11:26:29;;;;;;;2.10;1.05;;;37.10;35.30;;;;;;4979660;28;20073;-91
2022/08/13 11:29:31;;;;;;;4.72;1.25;;;37.10;34.00;;;;;;5006810;28;20029;-92
2022/08/13 11:31:57;;;;;;;6.55;1.25;;;37.20;33.30;;;;;;5022743;28;20474;-90
2022/08/13 11:34:23;;;;;;;1.48;0.98;;;36.70;34.00;;;;;;5012517;28;21264;-90
2022/08/13 11:36:57;;;;;;;1.08;1.00;;;36.70;35.10;;;;;;5009485;28;20052;-89
2022/08/13 11:39:23;;;;;;;2.85;1.00;;;36.80;34.60;;;;;;5030574;28;20048;-87
2022/08/13 11:41:56;;;;;;;0.80;0.80;;;37.00;33.70;;;;;;5020654;28;20065;-90
2022/08/13 11:44:22;;;;;;;1.67;1.20;;;37.40;33.70;;;;;;4962388;28;20037;-90
2022/08/13 11:46:48;;;;;;;2.35;1.35;;;37.40;33.60;;;;;;4988809;28;20037;-89
2022/08/13 11:49:16;;;;;;;1.10;1.10;;;37.00;33.00;;;;;;4988015;28;20532;-88
2022/08/13 11:51:44;;;;;;;4.05;1.20;;;36.80;33.70;;;;;;4984928;28;20045;-89
2022/08/13 11:54:10;;;;;;;2.00;1.17;;;36.80;33.00;;;;;;4962415;28;20124;-89
2022/08/13 11:56:36;;;;;;;1.10;1.00;;;36.90;34.00;;;;;;5012432;28;20046;-87
2022/08/13 11:59:05;;;;;;;1.00;0.90;;;36.90;34.80;;;;;;5031968;28;20121;-88
2022/08/13 12:01:30;;;;;;;2.45;1.10;;;36.80;33.60;;;;;;5016387;28;20057;-87
2022/08/13 12:04:03;;;;;;;2.58;1.20;;;36.90;33.10;;;;;;5016291;28;20061;-88
2022/08/13 12:06:30;;;;;;;2.33;1.20;;;37.00;34.30;;;;;;5020581;28;20033;-88
2022/08/13 12:08:56;;;;;;;2.90;1.02;;;37.00;33.50;;;;;;5018448;28;20045;-89
2022/08/13 12:11:26;;;;;;;1.38;1.27;;;37.00;33.60;;;;;;5002060;28;20446;-89
2022/08/13 12:13:52;;;;;;;1.35;1.10;;;37.20;33.30;;;;;;5014165;28;20040;-89
2022/08/13 12:16:18;;;;;;;4.03;1.40;;;37.30;33.40;;;;;;4974482;28;20030;-89
2022/08/13 12:18:48;;;;;;;2.15;1.20;;;37.40;31.20;;;;;;4975720;28;20504;-89
2022/08/13 12:21:14;;;;;;;1.15;1.05;;;37.20;31.00;;;;;;5000599;28;20034;-89
2022/08/13 12:23:40;;;;;;;2.03;0.90;;;37.10;31.70;;;;;;5024760;28;20500;-88
2022/08/13 12:26:16;;;;;;;1.48;1.15;;;37.10;31.70;;;;;;5002625;28;20029;-88
2022/08/13 12:28:44;;;;;;;1.48;0.90;;;37.20;31.60;;;;;;4980186;28;20037;-89
2022/08/13 12:31:18;;;;;;;1.48;1.20;;;37.30;32.50;;;;;;5026603;28;20156;-88
2022/08/13 12:33:44;;;;;;;0.85;0.80;;;37.70;32.10;;;;;;5014483;28;20473;-88
2022/08/13 12:36:17;;;;;;;3.80;1.27;;;37.50;32.60;;;;;;5015927;28;20049;-88
2022/08/13 12:38:46;;;;;;;2.42;1.38;;;37.30;31.20;;;;;;5013253;28;20413;-89
2022/08/13 12:41:19;;;;;;;2.45;1.33;;;38.90;31.20;;;;;;5017033;28;20057;-90
2022/08/13 12:43:46;;;;;;;3.45;1.27;;;38.90;30.60;;;;;;4999567;28;20515;-90
2022/08/13 12:46:11;;;;;;;3.88;1.10;;;39.00;31.00;;;;;;4998169;28;20492;-88
2022/08/13 12:48:44;;;;;;;1.42;1.33;;;38.50;31.50;;;;;;4990185;28;20064;-89
2022/08/13 12:51:10;;;;;;;2.70;1.00;;;38.00;30.60;;;;;;4989503;28;20025;-87
2022/08/13 12:53:36;;;;;;;1.30;1.08;;;38.00;32.10;;;;;;5010234;28;20057;-88
2022/08/13 12:56:04;;;;;;;1.27;1.00;;;38.30;31.80;;;;;;5003809;28;20041;-88
2022/08/13 12:58:35;;;;;;;1.10;1.10;;;38.10;30.80;;;;;;5026239;28;20053;-89
2022/08/13 13:01:11;;;;;;;1.00;1.00;;;37.90;30.60;;;;;;4987871;28;20025;-91
2022/08/13 13:03:37;;;;;;;1.40;1.30;;;38.30;33.10;;;;;;4987708;28;20092;-89
2022/08/13 13:06:10;;;;;;;1.13;1.13;;;38.20;31.50;;;;;;5034897;28;20085;-87
2022/08/13 13:08:36;;;;;;;2.78;1.35;;;38.70;33.20;;;;;;4982809;28;20100;-89
2022/08/13 13:11:18;;;;;;;1.67;1.17;;;38.70;31.60;;;;;;4963022;28;20026;-90
2022/08/13 13:13:54;;;;;;;3.50;1.30;;;38.90;31.50;;;;;;4977713;28;20034;-88